Home > Products > Valid Products > TAF

000
FTPQ31 PGUM 301739
TAFGUM
TAF
PGUM 301739Z 3018/0124 10007KT P6SM VCSH SCT018 SCT040 BKN100
     FM010100 09012KT P6SM VCSH SCT020 SCT050=



000
FTPQ31 PGUM 301122
TAFGUM
TAF
PGUM 301122Z 3012/0118 10005KT P6SM VCSH SCT018 SCT040 BKN100
     FM010100 09012KT P6SM VCSH SCT020 SCT050=



000
FTPQ31 PGUM 301122
TAFGUM
TAF
PGUM 301122Z 3012/0118 10005KT P6SM VCSH SCT018 SCT040 BKN100
     FM010100 09012KT P6SM VCSH SCT020 SCT050=



000
FTPQ31 PGUM 300739 AAA
TAFGUM
TAF AMD
PGUM 300739Z 3008/0112 12009KT P6SM VCSH SCT015 BKN035
     FM300900 10005KT P6SM VCSH SCT018 SCT040
     FM010100 09012KT P6SM VCSH SCT020 SCT050=



000
FTPQ31 PGUM 300535
TAFGUM
TAF
PGUM 300535Z 3006/0112 10013KT P6SM VCSH SCT017 BKN025
     FM300800 09007KT P6SM VCSH SCT018 SCT050
     FM010100 09012KT P6SM VCSH SCT020 SCT050=



000
FTPQ31 PGUM 292320
TAFGUM
TAF
PGUM 292320Z 3000/0106 09010KT P6SM VCSH SCT018 SCT035
     FM300800 08006KT P6SM VCSH SCT020 SCT050=



000
FTPQ31 PGUM 291732
TAFGUM
TAF
PGUM 291732Z 2918/3024 11007KT P6SM VCSH SCT016 SCT050
     FM300100 09010KT P6SM VCSH SCT020=



000
FTPQ31 PGUM 291120
TAFGUM
TAF
PGUM 291120Z 2912/3018 10007KT P6SM VCSH SCT016 SCT050 BKN100=



000
FTPQ31 PGUM 291120
TAFGUM
TAF
PGUM 291120Z 2912/3018 10007KT P6SM VCSH SCT016 SCT050 BKN100=



000
FTPQ31 PGUM 290533
TAFGUM
TAF
PGUM 290533Z 2906/3012 10012KT P6SM SCT025
     FM290700 07007KT P6SM VCSH SCT020=



000
FTPQ31 PGUM 282336
TAFGUM
TAF
PGUM 282336Z 2900/3006 09012KT P6SM SCT024
     FM290700 07007KT P6SM VCSH SCT020=



000
FTPQ31 PGUM 282336
TAFGUM
TAF
PGUM 282336Z 2900/3006 09012KT P6SM SCT024
     FM290700 07007KT P6SM VCSH SCT020=



000
FTPQ31 PGUM 281720
TAFGUM
TAF
PGUM 281720Z 2818/2924 08010KT P6SM FEW024=



000
FTPQ31 PGUM 281123
TAFGUM
TAF
PGUM 281123Z 2812/2918 08006KT P6SM FEW025=



000
FTPQ31 PGUM 280524
TAFGUM
TAF
PGUM 280524Z 2806/2912 08011KT P6SM FEW025=



000
FTPQ31 PGUM 280524
TAFGUM
TAF
PGUM 280524Z 2806/2912 08011KT P6SM FEW025=



000
FTPQ31 PGUM 272320
TAFGUM
TAF
PGUM 272320Z 2800/2906 07011KT P6SM SCT025=



    US Dept of Commerce
    National Oceanic and Atmospheric Administration
    National Weather Service
    1325 East West Highway
    Silver Spring, MD 20910
    Page Author: NWS Internet Services Team
Disclaimer
Information Quality
Credits
Glossary
Privacy Policy
Freedom of Information Act (FOIA)
About Us
Career Opportunities